Flight Track Log - Related Links

Times and Time Zones

All times are in EDT time to prevent confusion due to time zone crossing. See the OPT429 flight status page for this flight to view local times or setup timezone preferences in your user account.

Time Position Orientation Groundspeed Altitude Reporting Facility
EDT Latitude Longitude Course Direction KTS MPH feet Rate Location/Type
Wed 04:28:17 PM 29.6375 -95.2889 231° Southwest 152 175 1,000  Level Houston Center
Wed 04:28:30 PM 29.6319 -95.2967 231° Southwest 163 188 1,400 2,595 Climbing Houston Center
Wed 04:29:31 PM 29.6100 -95.3547 247° West 229 264 4,200 2,680 Climbing Houston Center
Wed 04:30:13 PM 29.6172 -95.4003 280° West 229 264 6,000 2,852 Climbing Houston Center
Wed 04:30:32 PM 29.6211 -95.4303 278° West 241 277 7,100 2,667 Climbing Houston Center
Wed 04:31:16 PM 29.6275 -95.4806 278° West 251 289 8,800 2,754 Climbing Houston Center
Wed 04:31:33 PM 29.6308 -95.5133 277° West 268 308 9,900 2,613 Climbing Houston Center
Wed 04:32:18 PM 29.6403 -95.5664 282° West 269 310 11,500 2,754 Climbing Houston Center
Wed 04:32:34 PM 29.6553 -95.5992 298° West 288 331 12,700 2,419 Climbing Houston Center
Wed 04:33:20 PM 29.6800 -95.6492 300° West 285 328 14,000 1,279 Climbing Houston Center
Wed 04:33:35 PM 29.6944 -95.6836 296° West 312 359 14,000  Level Houston Center
Wed 04:34:22 PM 29.7228 -95.7419 299° West 322 371 14,000  Level Houston Center
Wed 04:34:36 PM 29.7406 -95.7792 299° West 348 400 14,000  Level Houston Center
Wed 04:35:24 PM 29.7775 -95.8608 298° West 347 399 14,000  Level Houston Center
Wed 04:36:26 PM 29.8269 -95.9600 300° West 355 409 14,000  Level Houston Center
Wed 04:37:29 PM 29.8539 -96.0614 287° West 351 404 14,000  Level Houston Center
Wed 04:38:31 PM 29.8803 -96.1708 286° West 353 406 14,000  Level Houston Center
Wed 04:39:33 PM 29.9122 -96.3003 286° West 353 406 14,000  Level Houston Center
Wed 04:40:35 PM 29.9386 -96.4092 286° West 353 406 14,000  Level Houston Center
Wed 04:41:37 PM 29.9658 -96.5186 286° West 354 407 14,000  Level Houston Center
Wed 04:42:39 PM 29.9919 -96.6292 285° West 355 409 14,000  Level Houston Center
Wed 04:43:42 PM 30.0181 -96.7381 286° West 355 409 14,000 -960 Level Houston Center
Wed 04:44:44 PM 30.0492 -96.8694 285° West 355 409 12,000 -1,839 Descending Houston Center
Wed 04:45:46 PM 30.0797 -96.9683 290° West 336 387 10,200 -1,790 Descending Houston Center
Wed 04:46:48 PM 30.1061 -97.0586 289° West 296 341 8,300 -1,839 Descending Houston Center
Wed 04:47:50 PM 30.1328 -97.1450 290° West 289 333 6,400 -1,056 Descending Houston Center
Wed 04:48:53 PM 30.1711 -97.2197 301° West 277 319 6,100 -624 Descending Houston Center
Wed 04:49:55 PM 30.2139 -97.2936 304° West 273 314 5,100 -1,210 Descending Houston Center
Wed 04:50:57 PM 30.2639 -97.3853 302° West 275 316 3,600 -1,016 Descending Houston Center
Wed 04:51:59 PM 30.3036 -97.4586 302° West 273 314 3,000 -290 Descending Houston Center
Wed 04:53:01 PM 30.3294 -97.5244 294° West 244 281 3,000 -242 Level Houston Center
Wed 04:54:03 PM 30.3306 -97.5961 271° West 228 262 2,500 -480 Descending Houston Center
Wed 04:55:06 PM 30.3244 -97.6536 263° West 215 247 2,000 -336 Descending Houston Center
Wed 04:56:08 PM 30.2881 -97.6625 192° South 164 189 1,800 -387 Descending Houston Center
Wed 04:57:10 PM 30.2467 -97.6597 177° South 137 158 1,200 -435 Descending Houston Center
Wed 04:58:12 PM 30.2142 -97.6581 177° South 123 142 900 -290 Descending Houston Center

Login

Don't have an account? Register now (free) for customized features, flight alerts, and more!